Sibley, IL (61773)

10:38 PM CST on March 03, 2015 (GMT -0600)
Rural Cooksville | Change Station
CLOSE
Current Station
Personal Weather Station
Location: Cooksville, IL
Elevation: 801 ft
Nearby Weather Stations

Elev 801 ft 40.52 °N, 88.72 °W | Updated 3 minutes ago

Mostly Cloudy
Mostly Cloudy
31.7 °F
Feels Like 32 °F
N
2.0
Wind Variable Wind from NW
Gusts 5.0 mph

Today
High -- | Low -- °F
--% Chance of Precip.
Yesterday
High -- | Low -- °F
Precip. -- in
6:24 AM 5:46 PM
Waxing Gibbous, 98% visible
Pressure 29.89 in
Visibility 10.0 miles
Clouds Scattered Clouds 2400 ft
Scattered Clouds 12000 ft
Windchill 32 °F
Dew Point 30 °F
Humidity 92%
Rainfall 0.00 in
Snow Depth Not available.
UV 0 out of 12
Pollen .50 out of 12
Air Quality Not available.
Flu Activity Not available.
METAR KTIP 040415Z AUTO 31009KT 10SM SCT024 SCT120 02/00 A2989 RMK AO2 T00201004

More Conditions Fewer Conditions

Pressure 29.89 in
Visibility 10.0 miles
Clouds Scattered Clouds 2400 ft
Scattered Clouds 12000 ft
Windchill 32 °F
Dew Point 30 °F
Humidity 92%
Rainfall 0.00 in
Snow Depth Not available.
UV 0 out of 12
Pollen .50 out of 12
Air Quality Not available.
Flu Activity Not available.
METAR KTIP 040415Z AUTO 31009KT 10SM SCT024 SCT120 02/00 A2989 RMK AO2 T00201004

More Conditions Fewer Conditions

10-Day Weather Forecast

Almanac

Astronomy

Mar. 03, 2015 Rise Set
Actual Time
Civil Twilight
Nautical Twilight
Astronomical Twilight
Moon
Length of Visible Light
Length of Day
Tomorrow will be .
, % of the Moon is Illuminated

Today's Extremes

State Highs State Lows

Community

WunderPhotos

Upload Photos

1,802,385 photos uploaded!

WunderBlogs® & News

Nearby

Air Quality

  Air Quality AQ Index Pollutant
Not available.

Snow Depth

Station Depth Elevation

Earthquake Activity

City Distance Mag. Time & Date
Minimum magnitude displayed is 2.5.

Coastal Water Temperatures

Place Temperature

Nearby Weather Stations